sensor_id;sensor_type;location;lat;lon;timestamp;P1;durP1;ratioP1;P2;durP2;ratioP2
7203;SDS011;3643;52.460;13.322;2023-06-22T00:00:35;10.03;;;8.07;;
7203;SDS011;3643;52.460;13.322;2023-06-22T00:03:05;9.03;;;7.93;;
7203;SDS011;3643;52.460;13.322;2023-06-22T00:05:34;8.80;;;7.27;;
7203;SDS011;3643;52.460;13.322;2023-06-22T00:08:04;7.40;;;6.70;;
7203;SDS011;3643;52.460;13.322;2023-06-22T00:10:32;8.33;;;7.53;;
7203;SDS011;3643;52.460;13.322;2023-06-22T00:13:01;7.50;;;6.80;;
7203;SDS011;3643;52.460;13.322;2023-06-22T00:15:30;8.47;;;7.07;;
7203;SDS011;3643;52.460;13.322;2023-06-22T00:17:58;9.23;;;7.07;;
7203;SDS011;3643;52.460;13.322;2023-06-22T00:20:27;8.53;;;7.47;;
7203;SDS011;3643;52.460;13.322;2023-06-22T00:22:58;8.90;;;7.37;;
7203;SDS011;3643;52.460;13.322;2023-06-22T00:25:27;8.30;;;6.90;;
7203;SDS011;3643;52.460;13.322;2023-06-22T00:27:55;9.77;;;7.40;;
7203;SDS011;3643;52.460;13.322;2023-06-22T00:30:24;8.20;;;7.00;;
7203;SDS011;3643;52.460;13.322;2023-06-22T00:32:53;10.53;;;7.13;;
7203;SDS011;3643;52.460;13.322;2023-06-22T00:35:21;7.60;;;6.67;;
7203;SDS011;3643;52.460;13.322;2023-06-22T00:37:55;8.53;;;7.20;;
7203;SDS011;3643;52.460;13.322;2023-06-22T00:40:30;8.90;;;8.00;;
7203;SDS011;3643;52.460;13.322;2023-06-22T00:43:00;8.33;;;7.53;;
7203;SDS011;3643;52.460;13.322;2023-06-22T00:45:28;8.50;;;7.60;;
7203;SDS011;3643;52.460;13.322;2023-06-22T00:47:57;8.67;;;7.77;;
7203;SDS011;3643;52.460;13.322;2023-06-22T00:50:27;8.73;;;7.77;;
7203;SDS011;3643;52.460;13.322;2023-06-22T00:53:00;8.90;;;8.00;;
7203;SDS011;3643;52.460;13.322;2023-06-22T00:55:37;9.50;;;8.50;;
7203;SDS011;3643;52.460;13.322;2023-06-22T00:58:10;9.40;;;8.03;;
7203;SDS011;3643;52.460;13.322;2023-06-22T01:00:39;8.77;;;7.90;;
7203;SDS011;3643;52.460;13.322;2023-06-22T01:03:08;9.73;;;7.43;;
7203;SDS011;3643;52.460;13.322;2023-06-22T01:05:37;8.53;;;7.60;;
7203;SDS011;3643;52.460;13.322;2023-06-22T01:08:12;10.13;;;8.20;;
7203;SDS011;3643;52.460;13.322;2023-06-22T01:10:50;8.07;;;7.27;;
7203;SDS011;3643;52.460;13.322;2023-06-22T01:13:23;8.67;;;7.80;;
7203;SDS011;3643;52.460;13.322;2023-06-22T01:15:57;8.40;;;7.60;;
7203;SDS011;3643;52.460;13.322;2023-06-22T01:18:30;9.20;;;8.23;;
7203;SDS011;3643;52.460;13.322;2023-06-22T01:21:03;8.23;;;7.43;;
7203;SDS011;3643;52.460;13.322;2023-06-22T01:23:38;10.27;;;7.83;;
7203;SDS011;3643;52.460;13.322;2023-06-22T01:26:20;8.50;;;7.60;;
7203;SDS011;3643;52.460;13.322;2023-06-22T01:28:57;8.30;;;7.50;;
7203;SDS011;3643;52.460;13.322;2023-06-22T01:31:27;8.40;;;7.53;;
7203;SDS011;3643;52.460;13.322;2023-06-22T01:33:58;9.17;;;8.10;;
7203;SDS011;3643;52.460;13.322;2023-06-22T01:36:28;9.90;;;8.30;;
7203;SDS011;3643;52.460;13.322;2023-06-22T01:38:58;10.30;;;9.23;;
7203;SDS011;3643;52.460;13.322;2023-06-22T01:41:27;10.43;;;9.33;;
7203;SDS011;3643;52.460;13.322;2023-06-22T01:43:59;10.20;;;9.20;;
7203;SDS011;3643;52.460;13.322;2023-06-22T01:46:28;11.00;;;9.73;;
7203;SDS011;3643;52.460;13.322;2023-06-22T01:48:57;11.37;;;9.40;;
7203;SDS011;3643;52.460;13.322;2023-06-22T01:51:25;10.90;;;9.80;;
7203;SDS011;3643;52.460;13.322;2023-06-22T01:53:54;11.87;;;9.97;;
7203;SDS011;3643;52.460;13.322;2023-06-22T01:56:22;13.93;;;10.70;;
7203;SDS011;3643;52.460;13.322;2023-06-22T01:58:51;14.83;;;10.77;;
7203;SDS011;3643;52.460;13.322;2023-06-22T02:01:28;11.77;;;10.50;;
7203;SDS011;3643;52.460;13.322;2023-06-22T02:04:04;12.40;;;10.10;;
7203;SDS011;3643;52.460;13.322;2023-06-22T02:06:38;12.97;;;10.93;;
7203;SDS011;3643;52.460;13.322;2023-06-22T02:09:09;12.03;;;10.67;;
7203;SDS011;3643;52.460;13.322;2023-06-22T02:11:41;12.47;;;11.13;;
7203;SDS011;3643;52.460;13.322;2023-06-22T02:14:13;12.87;;;11.23;;
7203;SDS011;3643;52.460;13.322;2023-06-22T02:16:46;11.87;;;10.60;;
7203;SDS011;3643;52.460;13.322;2023-06-22T02:19:14;11.60;;;10.37;;
7203;SDS011;3643;52.460;13.322;2023-06-22T02:21:44;11.50;;;10.30;;
7203;SDS011;3643;52.460;13.322;2023-06-22T02:24:13;12.40;;;10.77;;
7203;SDS011;3643;52.460;13.322;2023-06-22T02:26:41;11.20;;;10.00;;
7203;SDS011;3643;52.460;13.322;2023-06-22T02:29:12;14.80;;;11.60;;
7203;SDS011;3643;52.460;13.322;2023-06-22T02:31:40;11.60;;;10.40;;
7203;SDS011;3643;52.460;13.322;2023-06-22T02:34:09;13.03;;;11.63;;
7203;SDS011;3643;52.460;13.322;2023-06-22T02:36:44;13.87;;;10.87;;
7203;SDS011;3643;52.460;13.322;2023-06-22T02:39:19;15.23;;;11.77;;
7203;SDS011;3643;52.460;13.322;2023-06-22T02:41:49;13.37;;;11.27;;
7203;SDS011;3643;52.460;13.322;2023-06-22T02:44:17;14.07;;;11.67;;
7203;SDS011;3643;52.460;13.322;2023-06-22T02:46:46;11.47;;;10.27;;
7203;SDS011;3643;52.460;13.322;2023-06-22T02:49:16;13.87;;;12.30;;
7203;SDS011;3643;52.460;13.322;2023-06-22T02:51:45;14.37;;;11.23;;
7203;SDS011;3643;52.460;13.322;2023-06-22T02:54:14;10.97;;;9.87;;
7203;SDS011;3643;52.460;13.322;2023-06-22T02:56:44;12.97;;;11.13;;
7203;SDS011;3643;52.460;13.322;2023-06-22T02:59:12;14.73;;;12.17;;
7203;SDS011;3643;52.460;13.322;2023-06-22T03:01:40;12.60;;;11.00;;
7203;SDS011;3643;52.460;13.322;2023-06-22T03:04:09;14.30;;;10.47;;
7203;SDS011;3643;52.460;13.322;2023-06-22T03:06:38;14.03;;;12.53;;
7203;SDS011;3643;52.460;13.322;2023-06-22T03:09:07;14.03;;;12.00;;
7203;SDS011;3643;52.460;13.322;2023-06-22T03:11:35;18.73;;;13.20;;
7203;SDS011;3643;52.460;13.322;2023-06-22T03:14:04;16.10;;;12.27;;
7203;SDS011;3643;52.460;13.322;2023-06-22T03:16:32;15.00;;;13.03;;
7203;SDS011;3643;52.460;13.322;2023-06-22T03:19:00;12.93;;;11.53;;
7203;SDS011;3643;52.460;13.322;2023-06-22T03:21:29;12.90;;;11.37;;
7203;SDS011;3643;52.460;13.322;2023-06-22T03:23:59;13.20;;;11.63;;
7203;SDS011;3643;52.460;13.322;2023-06-22T03:26:28;16.73;;;12.83;;
7203;SDS011;3643;52.460;13.322;2023-06-22T03:28:56;13.13;;;11.73;;
7203;SDS011;3643;52.460;13.322;2023-06-22T03:31:24;15.93;;;12.73;;
7203;SDS011;3643;52.460;13.322;2023-06-22T03:33:53;14.17;;;12.20;;
7203;SDS011;3643;52.460;13.322;2023-06-22T03:36:22;14.97;;;12.73;;
7203;SDS011;3643;52.460;13.322;2023-06-22T03:38:51;14.47;;;11.37;;
7203;SDS011;3643;52.460;13.322;2023-06-22T03:41:21;14.53;;;13.03;;
7203;SDS011;3643;52.460;13.322;2023-06-22T03:43:49;12.30;;;11.00;;
7203;SDS011;3643;52.460;13.322;2023-06-22T03:46:17;13.13;;;11.73;;
7203;SDS011;3643;52.460;13.322;2023-06-22T03:48:46;10.70;;;9.60;;
7203;SDS011;3643;52.460;13.322;2023-06-22T03:51:15;13.47;;;10.50;;
7203;SDS011;3643;52.460;13.322;2023-06-22T03:53:43;14.43;;;9.63;;
7203;SDS011;3643;52.460;13.322;2023-06-22T03:56:11;13.63;;;10.20;;
7203;SDS011;3643;52.460;13.322;2023-06-22T03:58:48;15.17;;;10.30;;
7203;SDS011;3643;52.460;13.322;2023-06-22T04:01:16;12.97;;;9.87;;
7203;SDS011;3643;52.460;13.322;2023-06-22T04:03:44;11.03;;;9.00;;
7203;SDS011;3643;52.460;13.322;2023-06-22T04:06:15;12.97;;;10.17;;
7203;SDS011;3643;52.460;13.322;2023-06-22T04:08:44;11.83;;;9.33;;
7203;SDS011;3643;52.460;13.322;2023-06-22T04:11:14;9.60;;;8.47;;
7203;SDS011;3643;52.460;13.322;2023-06-22T04:13:42;9.03;;;7.73;;
7203;SDS011;3643;52.460;13.322;2023-06-22T04:16:12;9.63;;;8.13;;
7203;SDS011;3643;52.460;13.322;2023-06-22T04:18:40;10.00;;;8.93;;
7203;SDS011;3643;52.460;13.322;2023-06-22T04:21:09;10.37;;;8.60;;
7203;SDS011;3643;52.460;13.322;2023-06-22T04:23:37;9.57;;;8.40;;
7203;SDS011;3643;52.460;13.322;2023-06-22T04:26:06;9.37;;;8.43;;
7203;SDS011;3643;52.460;13.322;2023-06-22T04:28:34;9.93;;;8.77;;
7203;SDS011;3643;52.460;13.322;2023-06-22T04:31:02;11.10;;;8.77;;
7203;SDS011;3643;52.460;13.322;2023-06-22T04:33:32;10.93;;;8.07;;
7203;SDS011;3643;52.460;13.322;2023-06-22T04:36:00;8.37;;;7.53;;
7203;SDS011;3643;52.460;13.322;2023-06-22T04:38:30;10.37;;;8.33;;
7203;SDS011;3643;52.460;13.322;2023-06-22T04:40:59;9.77;;;7.77;;
7203;SDS011;3643;52.460;13.322;2023-06-22T04:43:29;7.43;;;6.50;;
7203;SDS011;3643;52.460;13.322;2023-06-22T04:45:57;9.27;;;6.67;;
7203;SDS011;3643;52.460;13.322;2023-06-22T04:48:29;7.40;;;6.57;;
7203;SDS011;3643;52.460;13.322;2023-06-22T04:51:01;8.70;;;6.73;;
7203;SDS011;3643;52.460;13.322;2023-06-22T04:53:31;7.10;;;5.87;;
7203;SDS011;3643;52.460;13.322;2023-06-22T04:55:59;9.50;;;6.63;;
7203;SDS011;3643;52.460;13.322;2023-06-22T04:58:30;6.70;;;6.00;;
7203;SDS011;3643;52.460;13.322;2023-06-22T05:00:59;7.57;;;6.80;;
7203;SDS011;3643;52.460;13.322;2023-06-22T05:03:27;6.57;;;5.83;;
7203;SDS011;3643;52.460;13.322;2023-06-22T05:05:55;8.43;;;6.40;;
7203;SDS011;3643;52.460;13.322;2023-06-22T05:08:25;8.80;;;6.80;;
7203;SDS011;3643;52.460;13.322;2023-06-22T05:10:55;8.63;;;7.43;;
7203;SDS011;3643;52.460;13.322;2023-06-22T05:13:31;11.00;;;7.73;;
7203;SDS011;3643;52.460;13.322;2023-06-22T05:15:59;8.13;;;6.70;;
7203;SDS011;3643;52.460;13.322;2023-06-22T05:18:29;10.33;;;7.17;;
7203;SDS011;3643;52.460;13.322;2023-06-22T05:20:58;9.20;;;7.53;;
7203;SDS011;3643;52.460;13.322;2023-06-22T05:23:29;10.03;;;6.13;;
7203;SDS011;3643;52.460;13.322;2023-06-22T05:25:57;7.97;;;7.03;;
7203;SDS011;3643;52.460;13.322;2023-06-22T05:28:25;15.38;;;13.45;;
7203;SDS011;3643;52.460;13.322;2023-06-22T05:30:54;10.85;;;8.85;;
7203;SDS011;3643;52.460;13.322;2023-06-22T05:33:22;9.45;;;8.35;;
7203;SDS011;3643;52.460;13.322;2023-06-22T05:35:50;6.82;;;5.70;;
7203;SDS011;3643;52.460;13.322;2023-06-22T05:38:19;8.23;;;6.35;;
7203;SDS011;3643;52.460;13.322;2023-06-22T05:40:48;8.80;;;7.22;;
7203;SDS011;3643;52.460;13.322;2023-06-22T05:43:17;9.93;;;7.10;;
7203;SDS011;3643;52.460;13.322;2023-06-22T05:45:45;6.72;;;6.10;;
7203;SDS011;3643;52.460;13.322;2023-06-22T05:48:13;9.13;;;6.93;;
7203;SDS011;3643;52.460;13.322;2023-06-22T05:50:42;9.80;;;5.60;;
7203;SDS011;3643;52.460;13.322;2023-06-22T05:53:10;6.73;;;5.53;;
7203;SDS011;3643;52.460;13.322;2023-06-22T05:55:38;10.37;;;6.30;;
7203;SDS011;3643;52.460;13.322;2023-06-22T05:58:08;10.73;;;7.33;;
7203;SDS011;3643;52.460;13.322;2023-06-22T06:00:37;7.70;;;6.63;;
7203;SDS011;3643;52.460;13.322;2023-06-22T06:03:06;9.47;;;7.47;;
7203;SDS011;3643;52.460;13.322;2023-06-22T06:05:35;9.23;;;6.27;;
7203;SDS011;3643;52.460;13.322;2023-06-22T06:08:04;6.43;;;5.73;;
7203;SDS011;3643;52.460;13.322;2023-06-22T06:10:34;9.27;;;6.90;;
7203;SDS011;3643;52.460;13.322;2023-06-22T06:13:03;11.83;;;7.77;;
7203;SDS011;3643;52.460;13.322;2023-06-22T06:15:34;8.23;;;7.30;;
7203;SDS011;3643;52.460;13.322;2023-06-22T06:18:02;7.93;;;5.70;;
7203;SDS011;3643;52.460;13.322;2023-06-22T06:20:33;6.73;;;5.67;;
7203;SDS011;3643;52.460;13.322;2023-06-22T06:23:02;8.70;;;6.30;;
7203;SDS011;3643;52.460;13.322;2023-06-22T06:25:30;7.55;;;6.10;;
7203;SDS011;3643;52.460;13.322;2023-06-22T06:27:58;8.65;;;6.63;;
7203;SDS011;3643;52.460;13.322;2023-06-22T06:30:27;6.10;;;5.13;;
7203;SDS011;3643;52.460;13.322;2023-06-22T06:32:57;7.90;;;4.72;;
7203;SDS011;3643;52.460;13.322;2023-06-22T06:35:26;5.25;;;4.75;;
7203;SDS011;3643;52.460;13.322;2023-06-22T06:37:54;5.60;;;4.93;;
7203;SDS011;3643;52.460;13.322;2023-06-22T06:40:23;4.93;;;4.47;;
7203;SDS011;3643;52.460;13.322;2023-06-22T06:42:51;6.65;;;4.78;;
7203;SDS011;3643;52.460;13.322;2023-06-22T06:45:20;7.60;;;4.55;;
7203;SDS011;3643;52.460;13.322;2023-06-22T06:47:49;4.85;;;4.07;;
7203;SDS011;3643;52.460;13.322;2023-06-22T06:50:20;8.90;;;7.00;;
7203;SDS011;3643;52.460;13.322;2023-06-22T06:52:49;5.63;;;3.90;;
7203;SDS011;3643;52.460;13.322;2023-06-22T06:55:18;4.13;;;3.72;;
7203;SDS011;3643;52.460;13.322;2023-06-22T06:57:47;5.55;;;3.80;;
7203;SDS011;3643;52.460;13.322;2023-06-22T07:00:16;4.88;;;3.60;;
7203;SDS011;3643;52.460;13.322;2023-06-22T07:02:45;5.32;;;3.47;;
7203;SDS011;3643;52.460;13.322;2023-06-22T07:05:15;6.05;;;4.10;;
7203;SDS011;3643;52.460;13.322;2023-06-22T07:07:45;6.65;;;5.60;;
7203;SDS011;3643;52.460;13.322;2023-06-22T07:10:13;6.57;;;5.47;;
7203;SDS011;3643;52.460;13.322;2023-06-22T07:12:42;6.57;;;5.63;;
7203;SDS011;3643;52.460;13.322;2023-06-22T07:15:11;6.82;;;4.03;;
7203;SDS011;3643;52.460;13.322;2023-06-22T07:17:40;6.57;;;5.85;;
7203;SDS011;3643;52.460;13.322;2023-06-22T07:20:09;5.20;;;3.45;;
7203;SDS011;3643;52.460;13.322;2023-06-22T07:22:39;3.45;;;3.10;;
7203;SDS011;3643;52.460;13.322;2023-06-22T07:25:10;6.07;;;4.05;;
7203;SDS011;3643;52.460;13.322;2023-06-22T07:27:44;3.80;;;3.40;;
7203;SDS011;3643;52.460;13.322;2023-06-22T07:30:14;3.90;;;3.47;;
7203;SDS011;3643;52.460;13.322;2023-06-22T07:32:42;5.55;;;3.22;;
7203;SDS011;3643;52.460;13.322;2023-06-22T07:35:11;4.60;;;3.83;;
7203;SDS011;3643;52.460;13.322;2023-06-22T07:37:39;6.05;;;3.50;;
7203;SDS011;3643;52.460;13.322;2023-06-22T07:40:10;4.68;;;3.50;;
7203;SDS011;3643;52.460;13.322;2023-06-22T07:42:39;5.15;;;3.55;;
7203;SDS011;3643;52.460;13.322;2023-06-22T07:45:08;3.25;;;2.95;;
7203;SDS011;3643;52.460;13.322;2023-06-22T07:47:36;5.20;;;3.40;;
7203;SDS011;3643;52.460;13.322;2023-06-22T07:50:05;3.53;;;3.22;;
7203;SDS011;3643;52.460;13.322;2023-06-22T07:52:33;5.38;;;3.38;;
7203;SDS011;3643;52.460;13.322;2023-06-22T07:55:02;4.10;;;3.50;;
7203;SDS011;3643;52.460;13.322;2023-06-22T07:57:32;6.32;;;3.65;;
7203;SDS011;3643;52.460;13.322;2023-06-22T08:00:01;5.72;;;4.95;;
7203;SDS011;3643;52.460;13.322;2023-06-22T08:02:37;4.50;;;4.00;;
7203;SDS011;3643;52.460;13.322;2023-06-22T08:05:06;4.70;;;3.33;;
7203;SDS011;3643;52.460;13.322;2023-06-22T08:07:47;5.47;;;3.30;;
7203;SDS011;3643;52.460;13.322;2023-06-22T08:10:17;4.85;;;3.40;;
7203;SDS011;3643;52.460;13.322;2023-06-22T08:12:46;5.38;;;3.08;;
7203;SDS011;3643;52.460;13.322;2023-06-22T08:15:15;3.50;;;3.20;;
7203;SDS011;3643;52.460;13.322;2023-06-22T08:17:43;3.70;;;3.20;;
7203;SDS011;3643;52.460;13.322;2023-06-22T08:20:12;2.70;;;2.50;;
7203;SDS011;3643;52.460;13.322;2023-06-22T08:22:41;5.03;;;3.03;;
7203;SDS011;3643;52.460;13.322;2023-06-22T08:25:10;3.15;;;2.90;;
7203;SDS011;3643;52.460;13.322;2023-06-22T08:27:40;11.70;;;3.28;;
7203;SDS011;3643;52.460;13.322;2023-06-22T08:30:13;3.30;;;3.00;;
7203;SDS011;3643;52.460;13.322;2023-06-22T08:32:42;4.20;;;2.78;;
7203;SDS011;3643;52.460;13.322;2023-06-22T08:35:11;4.30;;;2.70;;
7203;SDS011;3643;52.460;13.322;2023-06-22T08:37:39;4.18;;;2.92;;
7203;SDS011;3643;52.460;13.322;2023-06-22T08:40:08;3.50;;;2.70;;
7203;SDS011;3643;52.460;13.322;2023-06-22T08:42:40;3.00;;;2.80;;
7203;SDS011;3643;52.460;13.322;2023-06-22T08:45:09;3.05;;;2.70;;
7203;SDS011;3643;52.460;13.322;2023-06-22T08:47:39;2.78;;;2.58;;
7203;SDS011;3643;52.460;13.322;2023-06-22T08:50:08;4.68;;;2.70;;
7203;SDS011;3643;52.460;13.322;2023-06-22T08:52:38;4.07;;;2.58;;
7203;SDS011;3643;52.460;13.322;2023-06-22T08:55:09;4.30;;;2.92;;
7203;SDS011;3643;52.460;13.322;2023-06-22T08:57:38;3.35;;;2.50;;
7203;SDS011;3643;52.460;13.322;2023-06-22T09:00:07;3.03;;;2.72;;
7203;SDS011;3643;52.460;13.322;2023-06-22T09:02:45;5.63;;;2.83;;
7203;SDS011;3643;52.460;13.322;2023-06-22T09:05:15;3.55;;;3.20;;
7203;SDS011;3643;52.460;13.322;2023-06-22T09:07:44;3.08;;;2.40;;
7203;SDS011;3643;52.460;13.322;2023-06-22T09:10:13;4.28;;;2.83;;
7203;SDS011;3643;52.460;13.322;2023-06-22T09:12:41;3.28;;;2.97;;
7203;SDS011;3643;52.460;13.322;2023-06-22T09:15:10;2.95;;;2.40;;
7203;SDS011;3643;52.460;13.322;2023-06-22T09:17:55;2.58;;;2.38;;
7203;SDS011;3643;52.460;13.322;2023-06-22T09:20:24;3.38;;;2.70;;
7203;SDS011;3643;52.460;13.322;2023-06-22T09:22:53;4.40;;;3.10;;
7203;SDS011;3643;52.460;13.322;2023-06-22T09:25:22;3.97;;;2.92;;
7203;SDS011;3643;52.460;13.322;2023-06-22T09:27:50;3.25;;;2.90;;
7203;SDS011;3643;52.460;13.322;2023-06-22T09:30:18;3.67;;;3.05;;
7203;SDS011;3643;52.460;13.322;2023-06-22T09:32:47;3.30;;;3.00;;
7203;SDS011;3643;52.460;13.322;2023-06-22T09:35:17;5.07;;;2.83;;
7203;SDS011;3643;52.460;13.322;2023-06-22T09:37:46;3.75;;;2.80;;
7203;SDS011;3643;52.460;13.322;2023-06-22T09:40:14;3.58;;;3.15;;
7203;SDS011;3643;52.460;13.322;2023-06-22T09:42:43;5.53;;;2.70;;
7203;SDS011;3643;52.460;13.322;2023-06-22T09:45:11;3.60;;;3.00;;
7203;SDS011;3643;52.460;13.322;2023-06-22T09:47:40;3.10;;;2.80;;
7203;SDS011;3643;52.460;13.322;2023-06-22T09:50:09;3.30;;;3.00;;
7203;SDS011;3643;52.460;13.322;2023-06-22T09:52:39;3.05;;;2.75;;
7203;SDS011;3643;52.460;13.322;2023-06-22T09:55:14;4.55;;;3.35;;
7203;SDS011;3643;52.460;13.322;2023-06-22T09:57:43;3.90;;;3.25;;
7203;SDS011;3643;52.460;13.322;2023-06-22T10:00:12;3.97;;;3.53;;
7203;SDS011;3643;52.460;13.322;2023-06-22T10:02:42;4.72;;;3.65;;
7203;SDS011;3643;52.460;13.322;2023-06-22T10:05:11;4.30;;;3.75;;
7203;SDS011;3643;52.460;13.322;2023-06-22T10:07:41;3.25;;;3.03;;
7203;SDS011;3643;52.460;13.322;2023-06-22T10:10:10;4.20;;;3.50;;
7203;SDS011;3643;52.460;13.322;2023-06-22T10:12:41;3.47;;;3.17;;
7203;SDS011;3643;52.460;13.322;2023-06-22T10:15:10;3.67;;;3.38;;
7203;SDS011;3643;52.460;13.322;2023-06-22T10:17:39;3.60;;;3.13;;
7203;SDS011;3643;52.460;13.322;2023-06-22T10:20:08;4.10;;;3.72;;
7203;SDS011;3643;52.460;13.322;2023-06-22T10:22:41;4.82;;;3.60;;
7203;SDS011;3643;52.460;13.322;2023-06-22T10:25:10;4.32;;;3.35;;
7203;SDS011;3643;52.460;13.322;2023-06-22T10:27:39;3.70;;;3.40;;
7203;SDS011;3643;52.460;13.322;2023-06-22T10:30:09;4.15;;;3.75;;
7203;SDS011;3643;52.460;13.322;2023-06-22T10:32:39;4.38;;;3.58;;
7203;SDS011;3643;52.460;13.322;2023-06-22T10:35:09;3.78;;;3.25;;
7203;SDS011;3643;52.460;13.322;2023-06-22T10:37:41;3.70;;;3.40;;
7203;SDS011;3643;52.460;13.322;2023-06-22T10:40:11;3.47;;;3.17;;
7203;SDS011;3643;52.460;13.322;2023-06-22T10:42:41;3.58;;;3.28;;
7203;SDS011;3643;52.460;13.322;2023-06-22T10:45:10;3.40;;;3.10;;
7203;SDS011;3643;52.460;13.322;2023-06-22T10:47:40;5.65;;;3.38;;
7203;SDS011;3643;52.460;13.322;2023-06-22T10:50:09;4.43;;;4.03;;
7203;SDS011;3643;52.460;13.322;2023-06-22T10:52:38;4.57;;;3.35;;
7203;SDS011;3643;52.460;13.322;2023-06-22T10:55:09;6.38;;;3.45;;
7203;SDS011;3643;52.460;13.322;2023-06-22T10:57:38;5.00;;;3.70;;
7203;SDS011;3643;52.460;13.322;2023-06-22T11:00:10;3.38;;;3.05;;
7203;SDS011;3643;52.460;13.322;2023-06-22T11:02:39;5.88;;;3.50;;
7203;SDS011;3643;52.460;13.322;2023-06-22T11:05:08;3.38;;;3.08;;
7203;SDS011;3643;52.460;13.322;2023-06-22T11:07:37;4.80;;;3.15;;
7203;SDS011;3643;52.460;13.322;2023-06-22T11:10:12;3.65;;;3.35;;
7203;SDS011;3643;52.460;13.322;2023-06-22T11:12:40;3.45;;;3.15;;
7203;SDS011;3643;52.460;13.322;2023-06-22T11:15:09;5.25;;;3.67;;
7203;SDS011;3643;52.460;13.322;2023-06-22T11:17:38;4.70;;;3.28;;
7203;SDS011;3643;52.460;13.322;2023-06-22T11:20:06;3.47;;;3.17;;
7203;SDS011;3643;52.460;13.322;2023-06-22T11:22:38;3.95;;;3.65;;
7203;SDS011;3643;52.460;13.322;2023-06-22T11:25:06;4.18;;;3.50;;
7203;SDS011;3643;52.460;13.322;2023-06-22T11:27:37;4.40;;;3.88;;
7203;SDS011;3643;52.460;13.322;2023-06-22T11:30:05;3.67;;;3.33;;
7203;SDS011;3643;52.460;13.322;2023-06-22T11:32:35;3.70;;;3.40;;
7203;SDS011;3643;52.460;13.322;2023-06-22T11:35:03;4.70;;;3.78;;
7203;SDS011;3643;52.460;13.322;2023-06-22T11:37:32;3.92;;;3.58;;
7203;SDS011;3643;52.460;13.322;2023-06-22T11:40:00;6.00;;;3.60;;
7203;SDS011;3643;52.460;13.322;2023-06-22T11:42:33;4.13;;;3.55;;
7203;SDS011;3643;52.460;13.322;2023-06-22T11:45:04;3.60;;;3.30;;
7203;SDS011;3643;52.460;13.322;2023-06-22T11:47:33;3.70;;;3.40;;
7203;SDS011;3643;52.460;13.322;2023-06-22T11:50:02;3.95;;;3.55;;
7203;SDS011;3643;52.460;13.322;2023-06-22T11:52:31;3.70;;;3.30;;
7203;SDS011;3643;52.460;13.322;2023-06-22T11:55:00;4.25;;;3.63;;
7203;SDS011;3643;52.460;13.322;2023-06-22T11:57:30;3.70;;;3.40;;
7203;SDS011;3643;52.460;13.322;2023-06-22T12:00:00;7.63;;;3.70;;
7203;SDS011;3643;52.460;13.322;2023-06-22T12:02:34;4.60;;;3.95;;
7203;SDS011;3643;52.460;13.322;2023-06-22T12:05:04;3.80;;;3.50;;
7203;SDS011;3643;52.460;13.322;2023-06-22T12:07:34;4.55;;;3.70;;
7203;SDS011;3643;52.460;13.322;2023-06-22T12:10:02;5.78;;;3.80;;
7203;SDS011;3643;52.460;13.322;2023-06-22T12:12:31;4.47;;;3.33;;
7203;SDS011;3643;52.460;13.322;2023-06-22T12:14:59;4.45;;;3.95;;
7203;SDS011;3643;52.460;13.322;2023-06-22T12:17:30;4.63;;;3.83;;
7203;SDS011;3643;52.460;13.322;2023-06-22T12:19:59;5.90;;;3.83;;
7203;SDS011;3643;52.460;13.322;2023-06-22T12:22:28;6.55;;;3.70;;
7203;SDS011;3643;52.460;13.322;2023-06-22T12:24:56;3.70;;;3.40;;
7203;SDS011;3643;52.460;13.322;2023-06-22T12:27:24;4.10;;;3.70;;
7203;SDS011;3643;52.460;13.322;2023-06-22T12:29:53;6.55;;;4.15;;
7203;SDS011;3643;52.460;13.322;2023-06-22T12:32:21;4.22;;;3.92;;
7203;SDS011;3643;52.460;13.322;2023-06-22T12:34:49;4.00;;;3.60;;
7203;SDS011;3643;52.460;13.322;2023-06-22T12:37:19;4.03;;;3.70;;
7203;SDS011;3643;52.460;13.322;2023-06-22T12:39:47;3.88;;;3.58;;
7203;SDS011;3643;52.460;13.322;2023-06-22T12:42:15;3.78;;;3.47;;
7203;SDS011;3643;52.460;13.322;2023-06-22T12:44:44;4.63;;;4.22;;
7203;SDS011;3643;52.460;13.322;2023-06-22T12:47:12;4.03;;;3.63;;
7203;SDS011;3643;52.460;13.322;2023-06-22T12:49:41;4.30;;;3.90;;
7203;SDS011;3643;52.460;13.322;2023-06-22T12:52:09;6.68;;;4.22;;
7203;SDS011;3643;52.460;13.322;2023-06-22T12:54:39;4.00;;;3.60;;
7203;SDS011;3643;52.460;13.322;2023-06-22T12:57:20;5.13;;;4.22;;
7203;SDS011;3643;52.460;13.322;2023-06-22T12:59:48;4.20;;;3.83;;
7203;SDS011;3643;52.460;13.322;2023-06-22T13:02:16;5.28;;;4.78;;
7203;SDS011;3643;52.460;13.322;2023-06-22T13:04:45;4.78;;;4.30;;
7203;SDS011;3643;52.460;13.322;2023-06-22T13:07:13;6.72;;;4.25;;
7203;SDS011;3643;52.460;13.322;2023-06-22T13:09:50;4.90;;;4.40;;
7203;SDS011;3643;52.460;13.322;2023-06-22T13:12:19;4.72;;;4.28;;
7203;SDS011;3643;52.460;13.322;2023-06-22T13:14:48;6.95;;;4.72;;
7203;SDS011;3643;52.460;13.322;2023-06-22T13:17:16;7.80;;;4.28;;
7203;SDS011;3643;52.460;13.322;2023-06-22T13:19:44;4.40;;;3.88;;
7203;SDS011;3643;52.460;13.322;2023-06-22T13:22:25;4.35;;;3.85;;
7203;SDS011;3643;52.460;13.322;2023-06-22T13:24:56;5.40;;;3.53;;
7203;SDS011;3643;52.460;13.322;2023-06-22T13:27:25;5.93;;;4.30;;
7203;SDS011;3643;52.460;13.322;2023-06-22T13:29:53;4.00;;;3.45;;
7203;SDS011;3643;52.460;13.322;2023-06-22T13:32:22;4.00;;;3.60;;
7203;SDS011;3643;52.460;13.322;2023-06-22T13:34:51;4.18;;;3.78;;
7203;SDS011;3643;52.460;13.322;2023-06-22T13:37:20;5.68;;;4.30;;
7203;SDS011;3643;52.460;13.322;2023-06-22T13:39:48;5.10;;;3.88;;
7203;SDS011;3643;52.460;13.322;2023-06-22T13:42:18;4.05;;;3.35;;
7203;SDS011;3643;52.460;13.322;2023-06-22T13:44:46;4.72;;;3.85;;
7203;SDS011;3643;52.460;13.322;2023-06-22T13:47:14;4.25;;;3.85;;
7203;SDS011;3643;52.460;13.322;2023-06-22T13:49:43;4.75;;;4.00;;
7203;SDS011;3643;52.460;13.322;2023-06-22T13:52:11;5.57;;;4.38;;
7203;SDS011;3643;52.460;13.322;2023-06-22T13:54:39;4.43;;;4.00;;
7203;SDS011;3643;52.460;13.322;2023-06-22T13:57:07;5.05;;;4.15;;
7203;SDS011;3643;52.460;13.322;2023-06-22T13:59:37;4.18;;;3.80;;
7203;SDS011;3643;52.460;13.322;2023-06-22T14:02:05;4.30;;;3.80;;
7203;SDS011;3643;52.460;13.322;2023-06-22T14:04:34;4.75;;;4.22;;
7203;SDS011;3643;52.460;13.322;2023-06-22T14:07:02;5.07;;;4.57;;
7203;SDS011;3643;52.460;13.322;2023-06-22T14:09:31;4.65;;;4.18;;
7203;SDS011;3643;52.460;13.322;2023-06-22T14:12:02;5.32;;;4.32;;
7203;SDS011;3643;52.460;13.322;2023-06-22T14:14:32;5.00;;;4.40;;
7203;SDS011;3643;52.460;13.322;2023-06-22T14:17:02;6.10;;;4.60;;
7203;SDS011;3643;52.460;13.322;2023-06-22T14:19:31;5.30;;;4.35;;
7203;SDS011;3643;52.460;13.322;2023-06-22T14:21:59;4.60;;;3.88;;
7203;SDS011;3643;52.460;13.322;2023-06-22T14:24:27;6.85;;;4.43;;
7203;SDS011;3643;52.460;13.322;2023-06-22T14:26:56;4.68;;;4.22;;
7203;SDS011;3643;52.460;13.322;2023-06-22T14:29:25;4.68;;;4.05;;
7203;SDS011;3643;52.460;13.322;2023-06-22T14:31:54;4.25;;;3.80;;
7203;SDS011;3643;52.460;13.322;2023-06-22T14:34:24;4.60;;;3.97;;
7203;SDS011;3643;52.460;13.322;2023-06-22T14:36:52;5.00;;;4.22;;
7203;SDS011;3643;52.460;13.322;2023-06-22T14:39:20;6.22;;;4.97;;
7203;SDS011;3643;52.460;13.322;2023-06-22T14:41:49;4.95;;;4.30;;
7203;SDS011;3643;52.460;13.322;2023-06-22T14:44:17;4.82;;;3.70;;
7203;SDS011;3643;52.460;13.322;2023-06-22T14:46:46;4.95;;;3.95;;
7203;SDS011;3643;52.460;13.322;2023-06-22T14:49:14;6.93;;;4.30;;
7203;SDS011;3643;52.460;13.322;2023-06-22T14:51:44;4.97;;;4.30;;
7203;SDS011;3643;52.460;13.322;2023-06-22T14:54:13;4.75;;;3.90;;
7203;SDS011;3643;52.460;13.322;2023-06-22T14:56:41;5.63;;;3.80;;
7203;SDS011;3643;52.460;13.322;2023-06-22T14:59:10;4.57;;;4.13;;
7203;SDS011;3643;52.460;13.322;2023-06-22T15:01:39;4.88;;;4.35;;
7203;SDS011;3643;52.460;13.322;2023-06-22T15:04:08;6.25;;;4.53;;
7203;SDS011;3643;52.460;13.322;2023-06-22T15:06:36;5.80;;;4.00;;
7203;SDS011;3643;52.460;13.322;2023-06-22T15:09:06;4.80;;;4.40;;